createdAt,value
2018-04-14T00:02:13.160Z,92.50
2018-04-14T00:04:40.845Z,92.60
2018-04-14T00:07:08.516Z,92.50
2018-04-14T00:09:36.588Z,92.50
2018-04-14T00:12:04.316Z,92.70
2018-04-14T00:14:32.100Z,92.70
2018-04-14T00:17:00.244Z,92.70
2018-04-14T00:19:28.733Z,92.60
2018-04-14T00:21:57.172Z,92.50
2018-04-14T00:24:24.891Z,92.50
2018-04-14T00:26:53.159Z,92.40
2018-04-14T00:29:20.900Z,92.40
2018-04-14T00:31:48.693Z,92.30
2018-04-14T00:34:17.161Z,91.90
2018-04-14T00:36:46.222Z,92.40
2018-04-14T00:39:14.141Z,92.50
2018-04-14T00:41:42.591Z,92.90
2018-04-14T00:44:10.292Z,92.90
2018-04-14T00:46:39.338Z,93.10
2018-04-14T00:49:07.023Z,93.10
2018-04-14T00:51:34.709Z,93.10
2018-04-14T00:54:03.265Z,92.60
2018-04-14T00:56:30.980Z,93.10
2018-04-14T00:58:58.752Z,92.50
2018-04-14T01:01:26.510Z,92.40
2018-04-14T01:03:55.019Z,92.20
2018-04-14T01:06:23.500Z,92.10
2018-04-14T01:08:51.198Z,92.10
2018-04-14T01:11:19.727Z,92.10
2018-04-14T01:13:48.185Z,92.30
2018-04-14T01:16:15.906Z,92.30
2018-04-14T01:18:43.845Z,92.70
2018-04-14T01:21:11.517Z,92.70
2018-04-14T01:23:39.957Z,92.90
2018-04-14T01:26:07.654Z,92.90
2018-04-14T01:28:35.370Z,92.90
2018-04-14T01:31:04.078Z,93.40
2018-04-14T01:33:31.810Z,93.40
2018-04-14T01:36:00.352Z,93.50
2018-04-14T01:38:29.435Z,93.90
2018-04-14T01:40:57.123Z,93.90
2018-04-14T01:43:25.332Z,94.00
2018-04-14T01:45:53.009Z,94.20
2018-04-14T01:48:20.664Z,94.40
2018-04-14T01:50:49.167Z,94.50
2018-04-14T01:53:16.829Z,94.50
2018-04-14T01:55:44.528Z,94.60
2018-04-14T01:58:12.449Z,94.70
2018-04-14T02:00:40.925Z,94.90
2018-04-14T02:03:08.596Z,94.90
2018-04-14T02:05:36.317Z,94.90
2018-04-14T02:08:04.077Z,94.80
2018-04-14T02:10:31.818Z,94.90
2018-04-14T02:13:00.256Z,95.10
2018-04-14T02:15:29.468Z,95.00
2018-04-14T02:17:57.232Z,94.90
2018-04-14T02:20:24.966Z,94.80
2018-04-14T02:22:52.649Z,94.80
2018-04-14T02:25:20.633Z,94.70
2018-04-14T02:27:48.308Z,94.80
2018-04-14T02:30:16.032Z,94.80
2018-04-14T02:32:44.589Z,94.90
2018-04-14T02:35:13.110Z,95.20
2018-04-14T02:37:40.828Z,95.20
2018-04-14T02:40:08.536Z,95.30
2018-04-14T02:42:36.205Z,95.60
2018-04-14T02:45:03.952Z,95.70
2018-04-14T02:47:31.641Z,95.70
2018-04-14T02:49:59.351Z,95.70
2018-04-14T02:52:27.005Z,95.70
2018-04-14T02:54:54.678Z,95.80
2018-04-14T02:57:23.179Z,96.10
2018-04-14T02:59:50.848Z,95.80
2018-04-14T03:02:18.513Z,96.00
2018-04-14T03:04:46.205Z,96.10
2018-04-14T03:07:13.907Z,96.20
2018-04-14T03:09:41.952Z,96.30
2018-04-14T03:12:10.392Z,96.70
2018-04-14T03:14:38.046Z,96.70
2018-04-14T03:17:05.728Z,96.80
2018-04-14T03:19:35.175Z,97.00
2018-04-14T03:22:03.658Z,97.10
2018-04-14T03:24:32.075Z,97.30
2018-04-14T03:27:00.600Z,97.40
2018-04-14T03:29:28.290Z,97.30
2018-04-14T03:31:56.845Z,97.30
2018-04-14T03:34:24.553Z,97.30
2018-04-14T03:36:53.040Z,97.30
2018-04-14T03:39:20.697Z,97.30
2018-04-14T03:41:48.392Z,97.40
2018-04-14T03:44:16.104Z,97.40
2018-04-14T03:46:43.772Z,97.50
2018-04-14T03:49:11.485Z,97.60
2018-04-14T03:51:39.175Z,97.70
2018-04-14T03:54:06.851Z,97.70
2018-04-14T03:56:34.534Z,97.80
2018-04-14T03:59:02.180Z,98.00
2018-04-14T04:01:30.663Z,98.20
2018-04-14T04:03:58.320Z,98.20
2018-04-14T04:06:25.974Z,98.30
2018-04-14T04:08:54.388Z,98.40
2018-04-14T04:11:22.036Z,98.50
2018-04-14T04:13:49.725Z,98.70
2018-04-14T04:16:18.484Z,99.00
2018-04-14T04:18:58.374Z,99.00
2018-04-14T04:21:38.325Z,99.20
2018-04-14T04:24:17.837Z,99.30
2018-04-14T04:26:45.530Z,99.50
2018-04-14T04:29:14.699Z,99.50
2018-04-14T04:31:42.353Z,99.50
2018-04-14T04:34:10.033Z,99.50
2018-04-14T04:36:39.043Z,99.70
2018-04-14T04:39:06.725Z,99.80
2018-04-14T04:41:34.409Z,99.90
2018-04-14T04:44:02.890Z,99.90
2018-04-14T04:46:33.882Z,99.90
2018-04-14T04:49:01.525Z,99.90
2018-04-14T04:51:29.614Z,99.90
2018-04-14T04:53:57.279Z,99.90
2018-04-14T04:56:24.969Z,99.90
2018-04-14T04:58:52.645Z,99.90
2018-04-14T05:01:20.308Z,99.90
2018-04-14T05:03:48.076Z,99.90
2018-04-14T05:06:15.836Z,99.90
2018-04-14T05:08:44.051Z,99.90
2018-04-14T05:11:11.716Z,99.90
2018-04-14T05:13:39.390Z,99.90
2018-04-14T05:16:07.195Z,99.90
2018-04-14T05:18:34.913Z,99.90
2018-04-14T05:21:02.640Z,99.90
2018-04-14T05:23:31.128Z,99.90
2018-04-14T05:25:58.824Z,99.90
2018-04-14T05:28:27.464Z,99.90
2018-04-14T05:30:55.138Z,99.90
2018-04-14T05:33:22.869Z,99.90
2018-04-14T05:35:50.568Z,99.90
2018-04-14T05:38:18.984Z,99.90
2018-04-14T05:40:47.827Z,99.90
2018-04-14T05:43:15.567Z,99.90
2018-04-14T05:45:43.228Z,99.90
2018-04-14T05:48:10.940Z,99.90
2018-04-14T05:50:38.678Z,99.90
2018-04-14T05:53:06.334Z,99.90
2018-04-14T05:55:33.981Z,99.90
2018-04-14T05:58:01.697Z,99.90
2018-04-14T06:00:29.454Z,99.90
2018-04-14T06:02:57.194Z,99.90
2018-04-14T06:05:24.876Z,99.90
2018-04-14T06:07:52.658Z,99.90
2018-04-14T06:10:21.004Z,99.90
2018-04-14T06:12:48.672Z,99.90
2018-04-14T06:15:16.331Z,99.90
2018-04-14T06:17:44.274Z,99.90
2018-04-14T06:20:12.002Z,99.90
2018-04-14T06:22:40.023Z,99.90
2018-04-14T06:25:07.753Z,99.90
2018-04-14T06:27:35.408Z,99.90
2018-04-14T06:30:03.148Z,99.90
2018-04-14T06:32:30.798Z,99.90
2018-04-14T06:34:59.341Z,99.90
2018-04-14T06:37:27.429Z,99.90
2018-04-14T06:39:55.197Z,99.90
2018-04-14T06:42:23.966Z,99.90
2018-04-14T06:44:51.634Z,99.90
2018-04-14T06:47:19.380Z,99.90
2018-04-14T06:49:47.115Z,99.90
2018-04-14T06:52:14.845Z,99.90
2018-04-14T06:54:42.513Z,99.90
2018-04-14T06:57:10.193Z,99.90
2018-04-14T06:59:38.693Z,99.80
2018-04-14T07:02:06.753Z,99.80
2018-04-14T07:04:34.442Z,99.60
2018-04-14T07:07:02.334Z,99.40
2018-04-14T07:09:31.121Z,99.50
2018-04-14T07:11:59.118Z,99.50
2018-04-14T07:14:26.832Z,99.30
2018-04-14T07:16:54.725Z,99.20
2018-04-14T07:19:22.983Z,99.00
2018-04-14T07:21:50.797Z,98.90
2018-04-14T07:24:19.521Z,98.60
2018-04-14T07:26:48.456Z,98.60
2018-04-14T07:29:16.604Z,98.50
2018-04-14T07:31:46.100Z,98.60
2018-04-14T07:34:14.586Z,97.90
2018-04-14T07:36:45.605Z,97.50
2018-04-14T07:39:13.328Z,97.40
2018-04-14T07:41:44.382Z,98.00
2018-04-14T07:44:14.609Z,98.00
2018-04-14T07:46:42.359Z,98.00
2018-04-14T07:49:10.031Z,97.80
2018-04-14T07:51:37.726Z,97.00
2018-04-14T07:54:05.477Z,97.10
2018-04-14T07:56:33.969Z,97.20
2018-04-14T07:59:04.366Z,97.00
2018-04-14T08:01:32.077Z,96.70
2018-04-14T08:03:59.745Z,96.40
2018-04-14T08:06:27.791Z,96.30
2018-04-14T08:08:55.476Z,96.40
2018-04-14T08:11:25.168Z,96.40
2018-04-14T08:13:52.883Z,96.40
2018-04-14T08:16:22.120Z,95.60
2018-04-14T08:18:49.769Z,95.60
2018-04-14T08:21:17.460Z,95.20
2018-04-14T08:23:45.875Z,95.20
2018-04-14T08:26:14.605Z,95.20
2018-04-14T08:28:43.863Z,94.80
2018-04-14T08:31:11.609Z,94.20
2018-04-14T08:33:39.597Z,94.10
2018-04-14T08:36:07.417Z,93.80
2018-04-14T08:38:35.124Z,93.50
2018-04-14T08:41:02.819Z,92.90
2018-04-14T08:43:30.862Z,92.80
2018-04-14T08:45:58.728Z,92.60
2018-04-14T08:48:26.403Z,92.40
2018-04-14T08:50:54.175Z,92.30
2018-04-14T08:53:22.712Z,92.00
2018-04-14T08:55:50.843Z,91.70
2018-04-14T08:58:18.578Z,91.30
2018-04-14T09:00:48.665Z,90.30
2018-04-14T09:03:18.136Z,90.20
2018-04-14T09:05:46.724Z,90.10
2018-04-14T09:08:14.859Z,90.10
2018-04-14T09:10:44.205Z,90.10
2018-04-14T09:13:15.040Z,88.60
2018-04-14T09:15:42.935Z,88.50
2018-04-14T09:18:14.256Z,87.00
2018-04-14T09:20:42.140Z,86.30
2018-04-14T09:23:10.091Z,86.80
2018-04-14T09:25:38.298Z,86.40
2018-04-14T09:28:09.392Z,83.30
2018-04-14T09:30:37.933Z,83.30
2018-04-14T09:33:06.802Z,81.90
2018-04-14T09:35:35.867Z,78.20
2018-04-14T09:38:04.224Z,78.20
2018-04-14T09:40:32.525Z,80.40
2018-04-14T09:43:00.207Z,81.70
2018-04-14T09:45:27.960Z,81.20
2018-04-14T09:47:55.714Z,81.10
2018-04-14T09:50:24.318Z,81.00
2018-04-14T09:52:52.045Z,82.40
2018-04-14T09:55:19.709Z,82.50
2018-04-14T09:57:47.426Z,82.10
2018-04-14T10:00:20.683Z,83.10
2018-04-14T10:02:48.379Z,83.20
2018-04-14T10:05:16.088Z,83.60
2018-04-14T10:07:43.740Z,83.40
2018-04-14T10:10:11.492Z,82.80
2018-04-14T10:12:39.187Z,81.30
2018-04-14T10:15:07.653Z,78.90
2018-04-14T10:17:35.339Z,78.40
2018-04-14T10:20:04.628Z,78.70
2018-04-14T10:22:32.304Z,78.70
2018-04-14T10:25:00.157Z,79.50
2018-04-14T10:27:28.200Z,79.40
2018-04-14T10:29:55.928Z,79.40
2018-04-14T10:32:23.809Z,76.00
2018-04-14T10:34:51.539Z,73.60
2018-04-14T10:37:19.224Z,72.90
2018-04-14T10:39:47.709Z,69.70
2018-04-14T10:42:16.169Z,68.90
2018-04-14T10:44:43.905Z,69.00
2018-04-14T10:47:11.678Z,70.90
2018-04-14T10:49:39.764Z,70.70
2018-04-14T10:52:07.782Z,70.00
2018-04-14T10:54:35.505Z,67.30
2018-04-14T10:57:03.562Z,66.80
2018-04-14T10:59:32.459Z,66.70
2018-04-14T11:02:01.400Z,65.40
2018-04-14T11:04:29.099Z,64.50
2018-04-14T11:06:57.580Z,59.20
2018-04-14T11:09:25.738Z,60.00
2018-04-14T11:11:53.431Z,59.10
2018-04-14T11:14:32.764Z,58.40
2018-04-14T11:17:00.445Z,58.70
2018-04-14T11:19:28.093Z,60.70
2018-04-14T11:24:30.925Z,61.00
2018-04-14T11:26:58.600Z,60.90
2018-04-14T11:29:26.320Z,60.20
2018-04-14T11:31:54.733Z,58.80
2018-04-14T11:34:22.697Z,58.60
2018-04-14T11:36:51.186Z,57.20
2018-04-14T11:39:19.188Z,57.20
2018-04-14T11:41:46.847Z,57.40
2018-04-14T11:44:14.675Z,58.50
2018-04-14T11:46:42.439Z,59.40
2018-04-14T11:49:10.652Z,58.90
2018-04-14T11:51:38.356Z,60.20
2018-04-14T11:54:06.263Z,58.20
2018-04-14T11:56:34.810Z,58.20
2018-04-14T11:59:02.508Z,58.20
2018-04-14T12:01:30.180Z,58.60
2018-04-14T12:03:58.024Z,58.60
2018-04-14T12:06:25.877Z,57.40
2018-04-14T12:08:53.615Z,56.30
2018-04-14T12:11:22.566Z,56.60
2018-04-14T12:13:50.254Z,56.40
2018-04-14T12:16:17.916Z,54.90
2018-04-14T12:18:45.649Z,55.50
2018-04-14T12:21:13.408Z,56.10
2018-04-14T12:23:41.156Z,55.00
2018-04-14T12:26:08.904Z,54.90
2018-04-14T12:28:36.572Z,54.50
2018-04-14T12:31:04.336Z,54.80
2018-04-14T12:33:32.048Z,53.10
2018-04-14T12:35:59.730Z,54.30
2018-04-14T12:38:28.121Z,54.40
2018-04-14T12:40:56.480Z,55.60
2018-04-14T12:43:24.161Z,54.50
2018-04-14T12:45:51.801Z,54.30
2018-04-14T12:48:19.476Z,54.50
2018-04-14T12:50:47.149Z,53.90
2018-04-14T12:53:15.069Z,54.20
2018-04-14T12:55:42.704Z,53.30
2018-04-14T12:58:10.350Z,53.30
2018-04-14T13:00:38.075Z,53.00
2018-04-14T13:03:06.592Z,51.60
2018-04-14T13:05:34.289Z,51.60
2018-04-14T13:08:02.028Z,52.50
2018-04-14T13:10:29.757Z,53.00
2018-04-14T13:12:58.407Z,52.20
2018-04-14T13:15:26.107Z,52.20
2018-04-14T13:17:53.759Z,53.00
2018-04-14T13:20:21.885Z,52.50
2018-04-14T13:22:49.581Z,52.90
2018-04-14T13:25:17.356Z,52.90
2018-04-14T13:27:45.036Z,52.50
2018-04-14T13:30:12.752Z,50.80
2018-04-14T13:32:40.442Z,48.50
2018-04-14T13:35:08.105Z,48.40
2018-04-14T13:37:36.592Z,47.40
2018-04-14T13:40:04.286Z,47.30
2018-04-14T13:42:31.945Z,46.70
2018-04-14T13:44:59.653Z,48.70
2018-04-14T13:47:27.884Z,47.40
2018-04-14T13:49:55.589Z,47.80
2018-04-14T13:52:23.233Z,48.20
2018-04-14T13:54:50.919Z,48.60
2018-04-14T13:57:19.153Z,48.30
2018-04-14T13:59:47.514Z,49.50
2018-04-14T14:02:15.472Z,50.30
2018-04-14T14:04:43.546Z,49.30
2018-04-14T14:07:11.422Z,48.90
2018-04-14T14:09:39.424Z,47.30
2018-04-14T14:12:07.773Z,47.40
2018-04-14T14:14:36.088Z,46.80
2018-04-14T14:17:03.989Z,44.70
2018-04-14T14:19:31.749Z,44.10
2018-04-14T14:22:00.500Z,41.20
2018-04-14T14:24:29.337Z,41.90
2018-04-14T14:26:57.704Z,41.90
2018-04-14T14:29:27.890Z,40.50
2018-04-14T14:31:55.787Z,40.30
2018-04-14T14:34:23.447Z,41.30
2018-04-14T14:36:52.738Z,42.60
2018-04-14T14:39:21.139Z,42.50
2018-04-14T14:41:49.586Z,42.50
2018-04-14T14:44:17.436Z,41.50
2018-04-14T14:46:45.482Z,41.10
2018-04-14T14:49:14.833Z,41.50
2018-04-14T14:51:42.514Z,41.20
2018-04-14T14:54:11.581Z,40.40
2018-04-14T14:56:40.634Z,39.00
2018-04-14T14:59:09.223Z,37.30
2018-04-14T15:01:38.190Z,37.10
2018-04-14T15:04:06.049Z,37.10
2018-04-14T15:06:34.244Z,37.10
2018-04-14T15:09:02.337Z,35.70
2018-04-14T15:11:31.671Z,35.60
2018-04-14T15:13:59.317Z,35.60
2018-04-14T15:16:26.966Z,34.10
2018-04-14T15:18:54.689Z,33.30
2018-04-14T15:21:22.369Z,32.60
2018-04-14T15:23:50.054Z,32.20
2018-04-14T15:26:17.976Z,31.80
2018-04-14T15:28:45.713Z,32.60
2018-04-14T15:31:14.145Z,35.40
2018-04-14T15:33:41.890Z,35.30
2018-04-14T15:36:09.575Z,36.90
2018-04-14T15:38:37.755Z,36.00
2018-04-14T15:41:05.545Z,35.50
2018-04-14T15:43:33.462Z,36.10
2018-04-14T15:46:02.786Z,36.00
2018-04-14T15:48:30.741Z,36.00
2018-04-14T15:50:58.425Z,36.20
2018-04-14T15:53:26.166Z,35.10
2018-04-14T15:55:53.860Z,33.40
2018-04-14T15:58:21.575Z,33.90
2018-04-14T16:00:49.993Z,31.60
2018-04-14T16:03:18.424Z,31.60
2018-04-14T16:05:46.119Z,32.00
2018-04-14T16:08:14.313Z,30.70
2018-04-14T16:10:42.021Z,32.50
2018-04-14T16:13:09.703Z,33.00
2018-04-14T16:15:37.389Z,31.60
2018-04-14T16:18:05.905Z,31.30
2018-04-14T16:20:34.285Z,29.80
2018-04-14T16:23:02.010Z,30.40
2018-04-14T16:25:29.688Z,30.70
2018-04-14T16:27:57.332Z,31.00
2018-04-14T16:30:25.653Z,30.60
2018-04-14T16:32:54.101Z,30.90
2018-04-14T16:35:21.778Z,30.20
2018-04-14T16:37:49.812Z,30.10
2018-04-14T16:40:17.960Z,29.50
2018-04-14T16:42:45.680Z,29.50
2018-04-14T16:45:14.137Z,30.10
2018-04-14T16:47:42.896Z,30.00
2018-04-14T16:50:10.651Z,30.00
2018-04-14T16:52:38.553Z,29.70
2018-04-14T16:55:07.216Z,29.00
2018-04-14T16:57:35.974Z,28.80
2018-04-14T17:00:04.540Z,27.00
2018-04-14T17:02:32.224Z,27.00
2018-04-14T17:05:00.069Z,28.30
2018-04-14T17:07:28.152Z,27.70
2018-04-14T17:09:55.865Z,28.30
2018-04-14T17:12:23.584Z,27.80
2018-04-14T17:14:51.258Z,27.20
2018-04-14T17:17:19.803Z,28.50
2018-04-14T17:19:47.568Z,28.40
2018-04-14T17:22:15.233Z,28.20
2018-04-14T17:24:43.713Z,28.50
2018-04-14T17:27:12.238Z,28.50
2018-04-14T17:29:40.800Z,28.40
2018-04-14T17:32:08.722Z,28.50
2018-04-14T17:34:37.122Z,27.90
2018-04-14T17:37:04.958Z,29.20
2018-04-14T17:39:33.631Z,32.00
2018-04-14T17:42:01.705Z,32.00
2018-04-14T17:44:30.393Z,32.20
2018-04-14T17:47:00.065Z,32.40
2018-04-14T17:49:28.597Z,32.80
2018-04-14T17:51:57.150Z,29.90
2018-04-14T17:54:24.920Z,29.90
2018-04-14T17:56:52.876Z,29.90
2018-04-14T17:59:21.296Z,31.20
2018-04-14T18:01:49.435Z,31.40
2018-04-14T18:04:17.207Z,32.40
2018-04-14T18:06:46.413Z,33.40
2018-04-14T18:09:14.608Z,33.30
2018-04-14T18:11:42.808Z,33.90
2018-04-14T18:14:11.206Z,33.60
2018-04-14T18:16:40.388Z,33.60
2018-04-14T18:19:10.122Z,34.50
2018-04-14T18:21:38.544Z,34.00
2018-04-14T18:24:06.238Z,34.70
2018-04-14T18:26:33.916Z,35.80
2018-04-14T18:29:01.570Z,36.70
2018-04-14T18:31:29.335Z,37.00
2018-04-14T18:33:57.045Z,38.20
2018-04-14T18:36:24.707Z,38.60
2018-04-14T18:38:52.406Z,39.00
2018-04-14T18:41:20.199Z,39.70
2018-04-14T18:43:47.848Z,40.10
2018-04-14T18:46:15.528Z,41.00
2018-04-14T18:48:44.181Z,42.20
2018-04-14T18:51:11.873Z,42.20
2018-04-14T18:53:39.552Z,42.60
2018-04-14T18:56:07.233Z,42.90
2018-04-14T18:58:35.428Z,43.80
2018-04-14T19:01:04.673Z,44.00
2018-04-14T19:03:32.372Z,44.30
2018-04-14T19:06:01.764Z,44.90
2018-04-14T19:08:30.002Z,44.80
2018-04-14T19:10:58.288Z,45.40
2018-04-14T19:13:25.954Z,45.70
2018-04-14T19:15:54.228Z,46.00
2018-04-14T19:18:23.830Z,46.20
2018-04-14T19:20:51.504Z,46.10
2018-04-14T19:23:19.174Z,46.40
2018-04-14T19:25:46.872Z,46.80
2018-04-14T19:28:14.536Z,47.40
2018-04-14T19:30:42.269Z,47.30
2018-04-14T19:33:09.926Z,48.10
2018-04-14T19:35:38.940Z,48.70
2018-04-14T19:38:06.818Z,49.10
2018-04-14T19:40:34.741Z,49.30
2018-04-14T19:43:03.774Z,49.50
2018-04-14T19:45:31.578Z,49.90
2018-04-14T19:48:00.004Z,51.00
2018-04-14T19:50:27.885Z,51.00
2018-04-14T19:52:56.158Z,51.70
2018-04-14T19:55:24.650Z,51.80
2018-04-14T19:57:52.611Z,52.20
2018-04-14T20:00:21.098Z,52.60
2018-04-14T20:02:49.479Z,52.70
2018-04-14T20:05:17.237Z,53.40
2018-04-14T20:07:44.920Z,53.20
2018-04-14T20:10:12.998Z,54.00
2018-04-14T20:12:41.582Z,54.20
2018-04-14T20:15:09.247Z,54.20
2018-04-14T20:17:37.138Z,54.90
2018-04-14T20:20:04.943Z,55.40
2018-04-14T20:22:33.402Z,56.00
2018-04-14T20:25:01.193Z,55.90
2018-04-14T20:27:29.029Z,55.50
2018-04-14T20:29:57.524Z,55.60
2018-04-14T20:32:26.717Z,56.10
2018-04-14T20:34:54.474Z,56.10
2018-04-14T20:37:22.981Z,56.70
2018-04-14T20:39:51.536Z,57.20
2018-04-14T20:42:19.195Z,57.20
2018-04-14T20:44:47.472Z,58.20
2018-04-14T20:47:15.572Z,59.30
2018-04-14T20:49:43.762Z,60.00
2018-04-14T20:52:11.453Z,61.40
2018-04-14T20:54:40.009Z,61.70
2018-04-14T20:57:08.467Z,63.40
2018-04-14T20:59:37.017Z,63.90
2018-04-14T21:02:04.916Z,63.90
2018-04-14T21:04:32.725Z,64.40
2018-04-14T21:07:01.288Z,65.00
2018-04-14T21:09:29.444Z,66.20
2018-04-14T21:11:57.920Z,67.40
2018-04-14T21:14:25.908Z,67.40
2018-04-14T21:16:53.605Z,68.40
2018-04-14T21:19:21.433Z,69.20
2018-04-14T21:21:49.225Z,69.40
2018-04-14T21:24:16.902Z,70.20
2018-04-14T21:26:44.689Z,71.20
2018-04-14T21:29:12.382Z,71.50
2018-04-14T21:31:40.777Z,72.30
2018-04-14T21:34:08.488Z,72.30
2018-04-14T21:36:38.205Z,73.00
2018-04-14T21:39:06.077Z,73.70
2018-04-14T21:41:33.812Z,74.00
2018-04-14T21:44:01.596Z,74.00
2018-04-14T21:46:29.893Z,74.60
2018-04-14T21:48:57.569Z,75.00
2018-04-14T21:51:25.484Z,74.40
2018-04-14T21:53:53.895Z,74.80
2018-04-14T21:56:21.752Z,73.80
2018-04-14T21:58:49.424Z,73.90
2018-04-14T22:01:18.163Z,74.30
2018-04-14T22:03:46.411Z,74.80
2018-04-14T22:06:14.627Z,74.70
2018-04-14T22:08:43.314Z,75.10
2018-04-14T22:11:11.074Z,75.60
2018-04-14T22:13:39.371Z,75.90
2018-04-14T22:16:07.353Z,76.20
2018-04-14T22:18:35.129Z,76.50
2018-04-14T22:21:02.853Z,77.40
2018-04-14T22:23:30.519Z,77.30
2018-04-14T22:25:58.500Z,77.00
2018-04-14T22:28:26.213Z,77.30
2018-04-14T22:30:53.868Z,77.60
2018-04-14T22:33:21.541Z,77.90
2018-04-14T22:35:50.712Z,78.50
2018-04-14T22:38:18.965Z,78.50
2018-04-14T22:40:46.689Z,79.10
2018-04-14T22:43:15.127Z,79.60
2018-04-14T22:45:42.816Z,79.60
2018-04-14T22:48:10.469Z,80.00
2018-04-14T22:50:38.378Z,80.40
2018-04-14T22:53:06.900Z,81.70
2018-04-14T22:55:35.430Z,81.70
2018-04-14T22:58:03.080Z,82.30
2018-04-14T23:00:30.781Z,82.40
2018-04-14T23:02:59.313Z,82.90
2018-04-14T23:05:27.057Z,82.80
2018-04-14T23:07:55.364Z,83.20
2018-04-14T23:10:23.228Z,83.80
2018-04-14T23:12:52.327Z,84.40
2018-04-14T23:15:20.961Z,85.20
2018-04-14T23:17:48.901Z,85.70
2018-04-14T23:20:16.599Z,85.90
2018-04-14T23:22:46.786Z,86.40
2018-04-14T23:25:15.699Z,86.40
2018-04-14T23:27:43.440Z,87.00
2018-04-14T23:30:12.989Z,87.50
2018-04-14T23:32:40.851Z,88.10
2018-04-14T23:35:09.331Z,88.90
2018-04-14T23:37:37.060Z,89.10
2018-04-14T23:40:04.778Z,89.40
2018-04-14T23:42:33.273Z,90.30
2018-04-14T23:45:03.923Z,90.50
2018-04-14T23:47:31.885Z,90.40
2018-04-14T23:49:59.714Z,90.60
2018-04-14T23:52:27.634Z,90.90
2018-04-14T23:54:56.676Z,91.20
2018-04-14T23:57:24.869Z,91.40
2018-04-14T23:59:52.713Z,91.40
